createdAt,value
2023-05-04T00:02:21.129Z,101739.34
2023-05-04T00:04:48.487Z,101731.31
2023-05-04T00:07:15.267Z,101721.88
2023-05-04T00:09:42.146Z,101721.22
2023-05-04T00:12:09.045Z,101726.84
2023-05-04T00:14:37.397Z,101731.47
2023-05-04T00:17:06.771Z,101722.66
2023-05-04T00:19:34.816Z,101719.78
2023-05-04T00:22:01.930Z,101717.97
2023-05-04T00:24:29.668Z,101725.25
2023-05-04T00:26:56.511Z,101719.91
2023-05-04T00:29:23.318Z,101713.19
2023-05-04T00:31:50.858Z,101717.84
2023-05-04T00:34:18.759Z,101716.25
2023-05-04T00:36:46.563Z,101703.41
2023-05-04T00:39:13.821Z,101706.94
2023-05-04T00:41:41.252Z,101697.94
2023-05-04T00:44:07.978Z,101689.78
2023-05-04T00:46:37.099Z,101683.34
2023-05-04T00:49:04.105Z,101680.78
2023-05-04T00:51:31.414Z,101677.41
2023-05-04T00:54:00.199Z,101677.09
2023-05-04T00:56:28.952Z,101676.44
2023-05-04T00:58:57.922Z,101662.72
2023-05-04T01:01:26.036Z,101664.16
2023-05-04T01:03:55.016Z,101667.78
2023-05-04T01:06:51.605Z,101663.84
2023-05-04T01:09:45.584Z,101659.13
2023-05-04T01:12:34.990Z,101657.53
2023-05-04T01:15:03.278Z,101658.47
2023-05-04T01:17:30.385Z,101644.69
2023-05-04T01:19:57.231Z,101649.66
2023-05-04T01:22:25.470Z,101646.81
2023-05-04T01:24:54.942Z,101649.03
2023-05-04T01:27:27.684Z,101650.44
2023-05-04T01:30:01.890Z,101650.13
2023-05-04T01:32:30.018Z,101641.84
2023-05-04T01:34:58.741Z,101639.66
2023-05-04T01:37:25.790Z,101653.66
2023-05-04T01:39:52.554Z,101649.66
2023-05-04T01:42:19.595Z,101644.59
2023-05-04T01:44:46.972Z,101650.13
2023-05-04T01:47:13.916Z,101645.19
2023-05-04T01:49:40.809Z,101650.13
2023-05-04T01:52:07.542Z,101658.00
2023-05-04T01:54:34.666Z,101652.03
2023-05-04T01:57:02.304Z,101654.47
2023-05-04T01:59:29.180Z,101643.41
2023-05-04T02:01:56.227Z,101649.16
2023-05-04T02:04:23.176Z,101639.72
2023-05-04T02:06:49.937Z,101641.25
2023-05-04T02:09:17.766Z,101637.63
2023-05-04T02:11:44.615Z,101636.81
2023-05-04T02:14:12.057Z,101636.00
2023-05-04T02:16:40.286Z,101645.59
2023-05-04T02:19:07.549Z,101639.81
2023-05-04T02:21:35.673Z,101644.06
2023-05-04T02:24:05.043Z,101640.34
2023-05-04T02:26:32.240Z,101650.34
2023-05-04T02:28:59.075Z,101643.19
2023-05-04T02:31:26.525Z,101643.06
2023-05-04T02:33:54.416Z,101642.91
2023-05-04T02:36:21.654Z,101640.88
2023-05-04T02:38:48.352Z,101653.50
2023-05-04T02:41:15.116Z,101649.19
2023-05-04T02:43:41.929Z,101652.09
2023-05-04T02:46:08.869Z,101650.78
2023-05-04T02:48:35.839Z,101649.41
2023-05-04T02:51:03.411Z,101651.97
2023-05-04T02:53:30.318Z,101643.50
2023-05-04T02:55:57.797Z,101645.50
2023-05-04T02:58:24.648Z,101643.88
2023-05-04T03:00:57.415Z,101647.91
2023-05-04T03:03:24.494Z,101635.88
2023-05-04T03:05:51.845Z,101637.00
2023-05-04T03:08:18.992Z,101639.56
2023-05-04T03:10:45.779Z,101640.53
2023-05-04T03:13:12.637Z,101640.19
2023-05-04T03:15:39.882Z,101630.97
2023-05-04T03:18:06.797Z,101630.44
2023-05-04T03:20:34.064Z,101631.88
2023-05-04T03:23:01.458Z,101625.50
2023-05-04T03:25:28.391Z,101624.91
2023-05-04T03:27:56.206Z,101620.63
2023-05-04T03:30:23.386Z,101627.31
2023-05-04T03:32:50.197Z,101611.41
2023-05-04T03:35:25.015Z,101608.56
2023-05-04T03:37:54.493Z,101604.31
2023-05-04T03:40:23.273Z,101598.69
2023-05-04T03:42:52.721Z,101600.69
2023-05-04T03:45:20.648Z,101596.47
2023-05-04T03:47:47.534Z,101601.41
2023-05-04T03:50:14.511Z,101592.81
2023-05-04T03:52:42.527Z,101591.94
2023-05-04T03:55:10.427Z,101594.44
2023-05-04T03:57:37.152Z,101587.78
2023-05-04T04:00:05.957Z,101587.63
2023-05-04T04:02:42.285Z,101584.03
2023-05-04T04:05:16.336Z,101591.03
2023-05-04T04:07:43.400Z,101589.53
2023-05-04T04:10:10.776Z,101583.22
2023-05-04T04:12:37.743Z,101589.31
2023-05-04T04:15:05.679Z,101580.63
2023-05-04T04:17:32.690Z,101579.72
2023-05-04T04:19:59.615Z,101578.69
2023-05-04T04:22:26.620Z,101582.91
2023-05-04T04:24:53.753Z,101582.50
2023-05-04T04:27:20.680Z,101581.13
2023-05-04T04:29:47.489Z,101595.69
2023-05-04T04:32:14.650Z,101586.25
2023-05-04T04:34:41.448Z,101587.50
2023-05-04T04:37:08.236Z,101585.59
2023-05-04T04:39:35.083Z,101588.69
2023-05-04T04:42:02.681Z,101599.56
2023-05-04T04:44:29.872Z,101593.44
2023-05-04T04:46:56.736Z,101586.97
2023-05-04T04:49:23.583Z,101597.16
2023-05-04T04:51:50.704Z,101599.19
2023-05-04T04:54:18.043Z,101588.44
2023-05-04T04:56:46.226Z,101590.59
2023-05-04T04:59:14.282Z,101579.38
2023-05-04T05:01:42.300Z,101587.78
2023-05-04T05:04:09.870Z,101586.41
2023-05-04T05:06:36.879Z,101591.78
2023-05-04T05:09:04.083Z,101595.44
2023-05-04T05:11:31.156Z,101589.47
2023-05-04T05:14:01.209Z,101581.13
2023-05-04T05:16:28.488Z,101580.84
2023-05-04T05:18:55.416Z,101571.88
2023-05-04T05:21:22.383Z,101575.25
2023-05-04T05:23:49.349Z,101572.53
2023-05-04T05:26:18.918Z,101570.75
2023-05-04T05:28:53.599Z,101583.72
2023-05-04T05:31:25.596Z,101570.41
2023-05-04T05:33:53.257Z,101565.59
2023-05-04T05:36:22.717Z,101562.88
2023-05-04T05:39:35.175Z,101565.28
2023-05-04T05:45:03.175Z,101560.19
2023-05-04T05:47:48.026Z,101559.84
2023-05-04T05:53:08.255Z,101553.09
2023-05-04T05:55:35.779Z,101553.13
2023-05-04T05:58:02.919Z,101546.03
2023-05-04T06:00:32.772Z,101548.03
2023-05-04T06:03:02.626Z,101543.38
2023-05-04T06:05:30.635Z,101542.56
2023-05-04T06:08:00.989Z,101530.69
2023-05-04T06:10:43.422Z,101531.53
2023-05-04T06:13:10.725Z,101543.16
2023-05-04T06:15:44.406Z,101540.50
2023-05-04T06:18:22.328Z,101526.38
2023-05-04T06:20:53.891Z,101517.66
2023-05-04T06:23:22.612Z,101524.31
2023-05-04T06:25:49.556Z,101524.75
2023-05-04T06:28:16.428Z,101527.44
2023-05-04T06:30:45.068Z,101524.19
2023-05-04T06:33:12.130Z,101526.13
2023-05-04T06:35:39.415Z,101508.63
2023-05-04T06:38:06.433Z,101503.78
2023-05-04T06:40:34.011Z,101507.75
2023-05-04T06:43:01.394Z,101507.13
2023-05-04T06:45:28.863Z,101508.34
2023-05-04T06:47:56.354Z,101504.13
2023-05-04T06:50:37.817Z,101510.50
2023-05-04T06:53:10.691Z,101498.44
2023-05-04T06:55:46.959Z,101497.78
2023-05-04T06:58:14.188Z,101506.56
2023-05-04T07:00:42.018Z,101514.50
2023-05-04T07:03:09.388Z,101514.97
2023-05-04T07:05:40.073Z,101515.25
2023-05-04T07:08:07.187Z,101517.94
2023-05-04T07:10:34.157Z,101514.34
2023-05-04T07:13:02.158Z,101500.41
2023-05-04T07:15:29.784Z,101511.34
2023-05-04T07:17:57.234Z,101508.03
2023-05-04T07:20:26.058Z,101504.75
2023-05-04T07:22:57.325Z,101506.47
2023-05-04T07:25:25.662Z,101501.84
2023-05-04T07:27:53.138Z,101499.59
2023-05-04T07:30:21.349Z,101494.25
2023-05-04T07:32:50.167Z,101489.78
2023-05-04T07:35:17.338Z,101480.53
2023-05-04T07:37:47.426Z,101487.38
2023-05-04T07:40:18.997Z,101477.78
2023-05-04T07:42:46.646Z,101497.59
2023-05-04T07:45:16.158Z,101480.50
2023-05-04T07:47:47.381Z,101471.22
2023-05-04T07:50:15.853Z,101481.72
2023-05-04T07:52:54.744Z,101481.25
2023-05-04T07:55:21.953Z,101474.44
2023-05-04T07:57:49.182Z,101470.25
2023-05-04T08:00:18.995Z,101452.19
2023-05-04T08:02:47.543Z,101449.69
2023-05-04T08:05:15.503Z,101447.59
2023-05-04T08:07:43.516Z,101438.16
2023-05-04T08:10:11.336Z,101431.03
2023-05-04T08:12:41.909Z,101427.09
2023-05-04T08:15:12.654Z,101425.09
2023-05-04T08:17:43.627Z,101443.63
2023-05-04T08:20:23.694Z,101434.50
2023-05-04T08:22:55.687Z,101426.25
2023-05-04T08:25:41.104Z,101418.91
2023-05-04T08:28:11.390Z,101419.44
2023-05-04T08:30:38.998Z,101432.91
2023-05-04T08:33:06.545Z,101413.94
2023-05-04T08:35:33.793Z,101419.66
2023-05-04T08:38:01.642Z,101419.84
2023-05-04T08:40:28.808Z,101408.56
2023-05-04T08:42:55.956Z,101401.56
2023-05-04T08:45:23.325Z,101403.66
2023-05-04T08:47:51.130Z,101398.06
2023-05-04T08:50:18.402Z,101394.50
2023-05-04T08:52:49.238Z,101407.94
2023-05-04T08:55:17.281Z,101407.47
2023-05-04T08:57:45.122Z,101398.38
2023-05-04T09:00:13.662Z,101407.94
2023-05-04T09:02:40.764Z,101401.53
2023-05-04T09:05:08.026Z,101378.47
2023-05-04T09:07:35.400Z,101389.16
2023-05-04T09:10:03.539Z,101389.75
2023-05-04T09:12:31.550Z,101383.06
2023-05-04T09:14:59.828Z,101388.66
2023-05-04T09:17:28.028Z,101387.22
2023-05-04T09:20:05.099Z,101371.00
2023-05-04T09:22:32.270Z,101376.28
2023-05-04T09:25:13.449Z,101365.00
2023-05-04T09:27:42.804Z,101369.47
2023-05-04T09:30:10.943Z,101367.06
2023-05-04T09:32:47.595Z,101357.59
2023-05-04T09:35:29.181Z,101356.88
2023-05-04T09:37:58.428Z,101356.44
2023-05-04T09:40:40.791Z,101347.06
2023-05-04T09:43:10.978Z,101344.25
2023-05-04T09:45:47.447Z,101345.63
2023-05-04T09:48:33.782Z,101337.22
2023-05-04T09:51:02.792Z,101325.06
2023-05-04T09:53:30.880Z,101336.25
2023-05-04T09:55:59.057Z,101330.66
2023-05-04T09:58:28.969Z,101318.16
2023-05-04T10:00:57.423Z,101314.31
2023-05-04T10:03:24.790Z,101314.69
2023-05-04T10:05:51.904Z,101317.94
2023-05-04T10:08:22.532Z,101315.84
2023-05-04T10:10:51.773Z,101288.47
2023-05-04T10:13:18.987Z,101292.94
2023-05-04T10:16:06.288Z,101285.72
2023-05-04T10:19:02.999Z,101294.19
2023-05-04T10:21:49.546Z,101295.00
2023-05-04T10:24:47.481Z,101296.28
2023-05-04T10:27:16.504Z,101277.47
2023-05-04T10:29:48.630Z,101264.22
2023-05-04T10:32:22.887Z,101283.28
2023-05-04T10:34:51.319Z,101285.19
2023-05-04T10:37:19.448Z,101291.25
2023-05-04T10:39:54.221Z,101290.94
2023-05-04T10:42:21.477Z,101262.50
2023-05-04T10:44:55.802Z,101284.47
2023-05-04T10:47:35.757Z,101290.22
2023-05-04T10:50:04.851Z,101283.06
2023-05-04T10:52:33.416Z,101272.19
2023-05-04T10:55:02.157Z,101275.41
2023-05-04T10:57:29.911Z,101267.22
2023-05-04T11:00:00.058Z,101265.53
2023-05-04T11:02:28.449Z,101257.53
2023-05-04T11:05:05.135Z,101251.78
2023-05-04T11:07:37.927Z,101257.53
2023-05-04T11:10:05.992Z,101239.19
2023-05-04T11:12:33.139Z,101247.91
2023-05-04T11:15:10.011Z,101231.16
2023-05-04T11:17:46.716Z,101229.06
2023-05-04T11:20:31.963Z,101223.91
2023-05-04T11:22:59.426Z,101220.97
2023-05-04T11:25:31.013Z,101213.41
2023-05-04T11:27:58.967Z,101199.00
2023-05-04T11:30:35.974Z,101206.50
2023-05-04T11:33:04.882Z,101207.31
2023-05-04T11:35:32.888Z,101196.63
2023-05-04T11:37:59.907Z,101199.28
2023-05-04T11:40:27.554Z,101189.94
2023-05-04T11:42:57.275Z,101182.47
2023-05-04T11:45:28.463Z,101181.66
2023-05-04T11:47:56.758Z,101181.75
2023-05-04T11:50:24.790Z,101177.44
2023-05-04T11:52:51.788Z,101169.47
2023-05-04T11:55:29.248Z,101154.84
2023-05-04T11:57:59.878Z,101153.66
2023-05-04T12:00:40.118Z,101149.75
2023-05-04T12:03:14.329Z,101144.59
2023-05-04T12:05:58.073Z,101140.59
2023-05-04T12:08:35.137Z,101129.16
2023-05-04T12:11:25.698Z,101122.03
2023-05-04T12:14:17.250Z,101109.81
2023-05-04T12:16:54.350Z,101108.22
2023-05-04T12:19:21.185Z,101104.28
2023-05-04T12:21:53.486Z,101107.81
2023-05-04T12:24:24.388Z,101105.47
2023-05-04T12:26:51.446Z,101099.13
2023-05-04T12:29:18.170Z,101097.91
2023-05-04T12:31:45.074Z,101088.72
2023-05-04T12:34:11.782Z,101080.59
2023-05-04T12:36:38.610Z,101080.56
2023-05-04T12:39:06.359Z,101067.56
2023-05-04T12:41:33.596Z,101065.53
2023-05-04T12:44:00.694Z,101051.50
2023-05-04T12:46:27.588Z,101040.88
2023-05-04T12:48:54.690Z,101046.88
2023-05-04T12:51:21.541Z,101047.72
2023-05-04T12:53:48.483Z,101048.47
2023-05-04T12:56:15.568Z,101059.09
2023-05-04T12:58:42.317Z,101068.25
2023-05-04T13:01:09.332Z,101071.56
2023-05-04T13:03:36.314Z,101065.50
2023-05-04T13:06:04.908Z,101071.50
2023-05-04T13:08:32.859Z,101069.91
2023-05-04T13:10:59.769Z,101069.47
2023-05-04T13:13:29.263Z,101060.38
2023-05-04T13:15:56.710Z,101061.66
2023-05-04T13:18:27.330Z,101066.16
2023-05-04T13:20:55.272Z,101057.91
2023-05-04T13:23:22.331Z,101050.41
2023-05-04T13:25:52.484Z,101045.06
2023-05-04T13:28:19.435Z,101052.88
2023-05-04T13:30:46.552Z,101046.09
2023-05-04T13:33:27.991Z,101049.53
2023-05-04T13:35:57.987Z,101041.31
2023-05-04T13:38:25.276Z,101057.06
2023-05-04T13:40:52.051Z,101052.81
2023-05-04T13:43:19.210Z,101036.88
2023-05-04T13:45:46.058Z,101025.81
2023-05-04T13:48:13.077Z,101024.09
2023-05-04T14:24:44.779Z,100939.63
2023-05-04T14:27:11.937Z,100941.25
2023-05-04T14:29:38.815Z,100941.16
2023-05-04T14:32:06.057Z,100940.47
2023-05-04T14:34:37.498Z,100929.88
2023-05-04T14:37:04.453Z,100913.75
2023-05-04T14:39:31.599Z,100927.31
2023-05-04T14:41:58.819Z,100919.75
2023-05-04T14:44:27.889Z,100930.16
2023-05-04T14:46:55.826Z,100918.00
2023-05-04T14:49:36.718Z,100915.84
2023-05-04T14:52:05.292Z,100923.84
2023-05-04T14:54:32.857Z,100915.63
2023-05-04T14:57:00.001Z,100907.63
2023-05-04T14:59:26.870Z,100910.31
2023-05-04T15:01:56.361Z,100908.38
2023-05-04T15:04:24.793Z,100903.81
2023-05-04T15:06:52.528Z,100910.00
2023-05-04T15:09:19.439Z,100909.06
2023-05-04T15:11:46.317Z,100903.97
2023-05-04T15:14:17.702Z,100904.16
2023-05-04T15:16:44.492Z,100903.63
2023-05-04T15:19:14.808Z,100907.19
2023-05-04T15:21:41.975Z,100916.84
2023-05-04T15:24:08.843Z,100917.09
2023-05-04T15:26:36.281Z,100915.88
2023-05-04T15:29:03.470Z,100912.13
2023-05-04T15:31:30.253Z,100911.59
2023-05-04T15:33:57.170Z,100902.47
2023-05-04T15:36:24.538Z,100905.41
2023-05-04T15:38:51.650Z,100903.59
2023-05-04T15:41:18.539Z,100906.56
2023-05-04T15:43:45.406Z,100905.06
2023-05-04T15:46:12.215Z,100905.00
2023-05-04T15:48:39.175Z,100903.34
2023-05-04T15:51:12.339Z,100901.06
2023-05-04T15:53:39.763Z,100920.47
2023-05-04T15:56:06.586Z,100917.91
2023-05-04T15:58:33.462Z,100895.72
2023-05-04T16:01:04.060Z,100894.72
2023-05-04T16:03:33.649Z,100911.47
2023-05-04T16:06:01.498Z,100910.72
2023-05-04T16:08:28.348Z,100895.00
2023-05-04T16:10:57.144Z,100901.84
2023-05-04T16:13:25.125Z,100899.69
2023-05-04T16:15:52.122Z,100888.91
2023-05-04T16:18:19.476Z,100893.78
2023-05-04T16:20:47.348Z,100893.53
2023-05-04T16:23:16.030Z,100893.75
2023-05-04T16:25:44.264Z,100886.06
2023-05-04T16:28:11.603Z,100893.16
2023-05-04T16:30:38.417Z,100888.81
2023-05-04T16:33:05.603Z,100881.78
2023-05-04T16:35:32.427Z,100882.41
2023-05-04T16:37:59.322Z,100884.25
2023-05-04T16:40:26.650Z,100886.63
2023-05-04T16:42:53.667Z,100879.84
2023-05-04T16:45:20.902Z,100867.19
2023-05-04T16:47:47.660Z,100874.31
2023-05-04T16:50:14.896Z,100880.78
2023-05-04T16:52:41.741Z,100883.88
2023-05-04T16:55:11.834Z,100878.38
2023-05-04T16:57:39.649Z,100879.25
2023-05-04T17:00:07.744Z,100876.72
2023-05-04T17:02:44.552Z,100868.09
2023-05-04T17:05:12.353Z,100878.63
2023-05-04T17:07:43.490Z,100866.72
2023-05-04T17:10:11.049Z,100879.56
2023-05-04T17:12:38.296Z,100867.19
2023-05-04T17:15:05.897Z,100856.50
2023-05-04T17:17:32.956Z,100868.78
2023-05-04T17:20:00.313Z,100853.63
2023-05-04T17:22:28.375Z,100876.88
2023-05-04T17:24:56.165Z,100869.19
2023-05-04T17:27:23.375Z,100883.88
2023-05-04T17:29:50.495Z,100887.84
2023-05-04T17:32:18.313Z,100901.63
2023-05-04T17:34:45.808Z,100892.28
2023-05-04T17:37:12.501Z,100906.81
2023-05-04T17:39:39.278Z,100897.69
2023-05-04T17:42:07.275Z,100907.69
2023-05-04T17:44:34.037Z,100914.94
2023-05-04T17:47:01.438Z,100915.25
2023-05-04T17:49:28.475Z,100914.84
2023-05-04T17:51:56.537Z,100900.78
2023-05-04T17:54:23.372Z,100913.94
2023-05-04T17:56:50.127Z,100907.16
2023-05-04T17:59:17.900Z,100909.88
2023-05-04T18:01:44.925Z,100910.84
2023-05-04T18:04:11.777Z,100912.91
2023-05-04T18:06:38.674Z,100918.88
2023-05-04T18:09:05.675Z,100916.16
2023-05-04T18:11:36.382Z,100933.22
2023-05-04T18:14:06.430Z,100924.56
2023-05-04T18:16:36.221Z,100925.94
2023-05-04T18:19:03.303Z,100924.63
2023-05-04T18:21:31.335Z,100928.06
2023-05-04T18:23:58.381Z,100927.69
2023-05-04T18:26:25.857Z,100932.34
2023-05-04T18:28:53.062Z,100936.88
2023-05-04T18:31:20.479Z,100939.63
2023-05-04T18:33:49.879Z,100935.38
2023-05-04T18:36:19.349Z,100943.16
2023-05-04T18:38:59.761Z,100944.41
2023-05-04T18:41:28.364Z,100937.34
2023-05-04T18:43:56.302Z,100940.44
2023-05-04T18:46:23.464Z,100955.94
2023-05-04T18:48:50.717Z,100954.44
2023-05-04T18:51:17.542Z,100957.63
2023-05-04T18:53:44.563Z,100957.13
2023-05-04T18:56:11.995Z,100972.59
2023-05-04T18:58:39.222Z,100979.69
2023-05-04T19:01:06.374Z,100974.16
2023-05-04T19:03:33.799Z,100978.16
2023-05-04T19:06:01.544Z,100984.50
2023-05-04T19:08:28.405Z,100984.94
2023-05-04T19:10:59.283Z,100975.47
2023-05-04T19:13:26.223Z,100975.09
2023-05-04T19:16:04.411Z,100970.38
2023-05-04T19:18:33.915Z,100969.19
2023-05-04T19:21:06.580Z,100971.13
2023-05-04T19:23:33.463Z,100979.06
2023-05-04T19:26:00.236Z,100983.81
2023-05-04T19:28:28.978Z,100983.81
2023-05-04T19:30:57.636Z,100984.59
2023-05-04T19:33:40.414Z,100981.47
2023-05-04T19:36:12.243Z,100990.13
2023-05-04T19:38:39.066Z,100996.06
2023-05-04T19:41:05.904Z,100990.88
2023-05-04T19:43:33.636Z,100991.19
2023-05-04T19:46:07.423Z,100994.03
2023-05-04T19:48:42.295Z,100994.84
2023-05-04T19:51:09.483Z,100995.56
2023-05-04T19:53:38.688Z,100998.75
2023-05-04T19:56:07.182Z,101007.72
2023-05-04T19:58:37.505Z,101003.44
2023-05-04T20:01:05.607Z,101002.25
2023-05-04T20:03:35.552Z,101009.44
2023-05-04T20:06:04.070Z,100996.38
2023-05-04T20:08:31.208Z,101002.38
2023-05-04T20:10:58.089Z,101024.50
2023-05-04T20:13:25.695Z,101017.78
2023-05-04T20:15:52.769Z,101024.88
2023-05-04T20:18:20.209Z,101021.25
2023-05-04T20:20:47.273Z,101030.44
2023-05-04T20:23:13.996Z,101023.25
2023-05-04T20:25:42.828Z,101027.16
2023-05-04T20:28:09.761Z,101034.31
2023-05-04T20:30:36.920Z,101026.81
2023-05-04T20:33:03.994Z,101024.00
2023-05-04T20:35:31.263Z,101019.66
2023-05-04T20:37:58.114Z,101013.44
2023-05-04T20:40:24.911Z,101006.69
2023-05-04T20:42:52.181Z,101009.88
2023-05-04T20:45:19.350Z,101008.66
2023-05-04T20:47:46.335Z,101001.59
2023-05-04T20:50:13.264Z,101004.78
2023-05-04T20:52:40.489Z,101021.75
2023-05-04T20:55:08.248Z,101020.94
2023-05-04T20:57:37.960Z,101017.78
2023-05-04T21:00:06.454Z,101020.97
2023-05-04T21:02:33.551Z,101023.72
2023-05-04T21:05:00.426Z,101028.47
2023-05-04T21:07:27.812Z,101020.50
2023-05-04T21:09:58.547Z,101022.06
2023-05-04T21:12:26.014Z,101009.03
2023-05-04T21:14:52.751Z,101013.75
2023-05-04T21:17:19.572Z,101020.66
2023-05-04T21:19:46.873Z,101010.94
2023-05-04T21:22:17.630Z,101013.34
2023-05-04T21:24:47.262Z,101016.09
2023-05-04T21:27:14.199Z,101016.13
2023-05-04T21:29:43.812Z,101017.22
2023-05-04T21:32:10.676Z,101031.13
2023-05-04T21:34:37.501Z,101025.94
2023-05-04T21:37:04.374Z,101057.38
2023-05-04T21:39:31.659Z,101061.00
2023-05-04T21:41:58.494Z,101060.00
2023-05-04T21:44:25.564Z,101058.06
2023-05-04T21:46:53.076Z,101045.63
2023-05-04T21:49:22.515Z,101042.06
2023-05-04T21:51:49.365Z,101038.28
2023-05-04T21:54:16.147Z,101038.31
2023-05-04T21:56:43.036Z,101033.91
2023-05-04T21:59:09.985Z,101031.47
2023-05-04T22:01:37.250Z,101030.44
2023-05-04T22:04:07.055Z,101042.50
2023-05-04T22:06:34.197Z,101046.28
2023-05-04T22:09:01.106Z,101041.78
2023-05-04T22:11:27.854Z,101036.47
2023-05-04T22:13:54.676Z,101031.13
2023-05-04T22:16:21.457Z,101030.03
2023-05-04T22:18:49.854Z,101031.56
2023-05-04T22:21:16.550Z,101028.41
2023-05-04T22:23:43.232Z,101021.59
2023-05-04T22:26:10.369Z,101024.16
2023-05-04T22:28:37.128Z,101020.97
2023-05-04T22:31:03.956Z,101013.53
2023-05-04T22:33:30.810Z,101029.97
2023-05-04T22:35:57.842Z,101012.75
2023-05-04T22:38:24.477Z,101016.91
2023-05-04T22:40:51.329Z,101020.72
2023-05-04T22:43:18.286Z,101020.97
2023-05-04T22:45:45.036Z,101033.47
2023-05-04T22:48:14.013Z,101031.78
2023-05-04T22:50:41.537Z,101040.34
2023-05-04T22:53:08.382Z,101043.03
2023-05-04T22:55:35.528Z,101050.94
2023-05-04T22:58:02.615Z,101069.63
2023-05-04T23:00:29.642Z,101070.22
2023-05-04T23:02:56.775Z,101083.19
2023-05-04T23:05:23.795Z,101088.84
2023-05-04T23:07:52.539Z,101084.25
2023-05-04T23:10:19.833Z,101084.84
2023-05-04T23:12:47.397Z,101100.09
2023-05-04T23:15:14.332Z,101098.16
2023-05-04T23:17:41.499Z,101114.97
2023-05-04T23:20:09.393Z,101119.56
2023-05-04T23:22:36.343Z,101123.84
2023-05-04T23:25:03.302Z,101119.78
2023-05-04T23:27:30.472Z,101127.47
2023-05-04T23:29:57.255Z,101124.84
2023-05-04T23:32:23.935Z,101121.59
2023-05-04T23:34:50.944Z,101126.78
2023-05-04T23:37:17.728Z,101130.22
2023-05-04T23:39:46.684Z,101138.97
2023-05-04T23:42:13.482Z,101116.97
2023-05-04T23:44:40.227Z,101126.59
2023-05-04T23:47:07.087Z,101121.00
2023-05-04T23:49:33.797Z,101125.44
2023-05-04T23:52:01.017Z,101125.81
2023-05-04T23:54:27.709Z,101126.88
2023-05-04T23:56:54.734Z,101126.38
2023-05-04T23:59:21.465Z,101123.47
